Time,TemperatureF,DewpointF,PressureIn,WindDirection,WindDirectionDegrees,WindSpeedMPH,WindSpeedGustMPH,Humidity,HourlyPrecipIn,Conditions,Clouds,dailyrainin,SoftwareType,DateUTC
2013-05-29 00:00:00,53.2,48.2,29.69,SW,225,0.0,0.0,83,0.00,CLR,SKC,0.00,WeatherDisplay:10.37,2013-05-28 22:00:00,
2013-05-29 00:05:00,53.2,48.2,29.69,SW,225,0.0,0.0,83,0.00,CLR,SKC,0.00,WeatherDisplay:10.37,2013-05-28 22:05:00,
2013-05-29 00:10:00,53.2,48.2,29.69,SW,225,0.0,0.0,83,0.00,CLR,SKC,0.00,WeatherDisplay:10.37,2013-05-28 22:10:00,
2013-05-29 00:16:00,52.5,47.5,29.69,SW,225,0.0,0.0,83,0.00,CLR,SKC,0.00,WeatherDisplay:10.37,2013-05-28 22:16:00,
2013-05-29 00:21:00,52.3,47.6,29.69,SW,225,0.0,0.0,84,0.00,CLR,SKC,0.00,WeatherDisplay:10.37,2013-05-28 22:21:00,
2013-05-29 00:26:00,52.0,47.3,29.69,SW,225,0.0,0.0,84,0.00,CLR,SKC,0.00,WeatherDisplay:10.37,2013-05-28 22:26:00,
2013-05-29 00:31:00,51.6,46.9,29.69,SW,225,0.0,0.0,84,0.00,CLR,SKC,0.00,WeatherDisplay:10.37,2013-05-28 22:31:00,
2013-05-29 00:36:00,51.6,46.9,29.69,SW,225,0.0,0.0,84,0.00,CLR,SKC,0.00,WeatherDisplay:10.37,2013-05-28 22:36:00,
2013-05-29 00:41:00,51.3,47.0,29.69,SW,225,0.0,0.0,85,0.00,CLR,SKC,0.00,WeatherDisplay:10.37,2013-05-28 22:41:00,
2013-05-29 00:46:00,50.9,46.6,29.69,WSW,253,0.0,0.0,85,0.00,CLR,SKC,0.00,WeatherDisplay:10.37,2013-05-28 22:46:00,
2013-05-29 00:51:00,50.7,46.4,29.69,West,270,0.0,0.0,85,0.00,CLR,SKC,0.00,WeatherDisplay:10.37,2013-05-28 22:51:00,
2013-05-29 00:56:00,50.8,46.7,29.68,SW,235,0.0,0.0,86,0.00,CLR,SKC,0.00,WeatherDisplay:10.37,2013-05-28 22:56:00,
2013-05-29 01:01:00,50.9,46.9,29.68,SSE,158,1.5,1.5,86,0.00,CLR,SKC,0.00,WeatherDisplay:10.37,2013-05-28 23:01:00,
2013-05-29 01:06:00,51.1,47.0,29.68,SSE,158,0.0,0.0,86,0.00,CLR,SKC,0.00,WeatherDisplay:10.37,2013-05-28 23:06:00,
2013-05-29 01:11:00,51.6,47.9,29.68,SSE,158,0.0,0.0,87,0.00,CLR,SKC,0.00,WeatherDisplay:10.37,2013-05-28 23:11:00,
2013-05-29 01:16:00,51.6,47.9,29.68,ESE,112,0.0,0.0,87,0.00,CLR,SKC,0.00,WeatherDisplay:10.37,2013-05-28 23:16:00,
2013-05-29 01:21:00,51.6,47.9,29.68,East,90,0.0,0.0,87,0.00,CLR,SKC,0.00,WeatherDisplay:10.37,2013-05-28 23:21:00,
2013-05-29 01:26:00,51.6,47.9,29.68,East,90,0.0,0.0,87,0.00,CLR,SKC,0.00,WeatherDisplay:10.37,2013-05-28 23:26:00,
2013-05-29 01:31:00,51.6,47.9,29.68,East,90,0.0,0.0,87,0.00,CLR,SKC,0.00,WeatherDisplay:10.37,2013-05-28 23:31:00,
2013-05-29 01:36:00,51.4,47.7,29.68,SSW,202,0.0,0.0,87,0.00,CLR,SKC,0.00,WeatherDisplay:10.37,2013-05-28 23:36:00,
2013-05-29 01:41:00,51.3,47.8,29.68,WSW,248,0.0,0.0,88,0.00,CLR,SKC,0.00,WeatherDisplay:10.37,2013-05-28 23:41:00,
2013-05-29 01:46:00,51.1,47.6,29.68,WSW,248,0.0,0.0,88,0.00,CLR,SKC,0.00,WeatherDisplay:10.37,2013-05-28 23:46:00,
2013-05-29 01:51:00,50.9,47.5,29.69,WSW,248,0.0,0.0,88,0.00,CLR,SKC,0.00,WeatherDisplay:10.37,2013-05-28 23:51:00,
2013-05-29 01:56:00,50.7,47.3,29.68,WSW,248,0.0,0.0,88,0.00,CLR,SKC,0.00,WeatherDisplay:10.37,2013-05-28 23:56:00,
2013-05-29 02:01:00,50.5,47.1,29.69,WSW,248,0.0,0.0,88,0.00,CLR,SKC,0.00,WeatherDisplay:10.37,2013-05-29 00:01:00,
2013-05-29 02:06:00,50.2,46.8,29.69,WSW,248,0.0,0.0,88,0.00,CLR,SKC,0.00,WeatherDisplay:10.37,2013-05-29 00:06:00,
2013-05-29 02:11:00,50.2,46.8,29.69,WSW,248,0.0,0.0,88,0.00,CLR,SKC,0.00,WeatherDisplay:10.37,2013-05-29 00:11:00,
2013-05-29 02:16:00,49.6,46.2,29.69,WSW,248,0.0,0.0,88,0.00,CLR,SKC,0.00,WeatherDisplay:10.37,2013-05-29 00:16:00,
2013-05-29 02:21:00,49.6,46.2,29.69,WSW,248,0.0,0.0,88,0.00,CLR,SKC,0.00,WeatherDisplay:10.37,2013-05-29 00:21:00,
2013-05-29 02:26:00,49.3,45.9,29.69,WSW,248,0.0,0.0,88,0.00,CLR,SKC,0.00,WeatherDisplay:10.37,2013-05-29 00:26:00,
2013-05-29 02:31:00,49.3,46.2,29.69,WSW,248,0.0,0.0,89,0.00,CLR,SKC,0.00,WeatherDisplay:10.37,2013-05-29 00:31:00,
2013-05-29 02:36:00,49.1,46.0,29.69,WSW,248,0.0,0.0,89,0.00,CLR,SKC,0.00,WeatherDisplay:10.37,2013-05-29 00:36:00,
2013-05-29 02:42:00,48.9,45.8,29.68,WSW,248,0.0,0.0,89,0.00,CLR,SKC,0.00,WeatherDisplay:10.37,2013-05-29 00:42:00,
2013-05-29 02:47:00,48.9,45.8,29.68,WSW,248,0.0,0.0,89,0.00,CLR,SKC,0.00,WeatherDisplay:10.37,2013-05-29 00:47:00,
2013-05-29 02:52:00,48.9,45.8,29.68,WSW,248,0.0,0.0,89,0.00,CLR,SKC,0.00,WeatherDisplay:10.37,2013-05-29 00:52:00,
2013-05-29 02:57:00,48.7,45.6,29.68,WSW,248,0.0,0.0,89,0.00,CLR,SKC,0.00,WeatherDisplay:10.37,2013-05-29 00:57:00,
2013-05-29 03:02:00,48.7,45.6,29.68,WSW,248,0.0,0.0,89,0.00,CLR,SKC,0.00,WeatherDisplay:10.37,2013-05-29 01:02:00,
2013-05-29 03:07:00,48.6,45.5,29.68,WSW,248,0.0,0.0,89,0.00,CLR,SKC,0.00,WeatherDisplay:10.37,2013-05-29 01:07:00,
2013-05-29 03:12:00,48.4,45.3,29.67,WSW,248,0.0,0.0,89,0.00,CLR,SKC,0.00,WeatherDisplay:10.37,2013-05-29 01:12:00,
2013-05-29 03:17:00,48.2,45.1,29.68,WSW,248,0.0,0.0,89,0.00,CLR,SKC,0.00,WeatherDisplay:10.37,2013-05-29 01:17:00,
2013-05-29 03:22:00,48.2,45.4,29.67,WSW,248,0.0,0.0,90,0.00,CLR,SKC,0.00,WeatherDisplay:10.37,2013-05-29 01:22:00,
2013-05-29 03:27:00,48.2,45.4,29.67,WSW,248,0.0,0.0,90,0.00,CLR,SKC,0.00,WeatherDisplay:10.37,2013-05-29 01:27:00,
2013-05-29 03:32:00,48.4,45.6,29.67,SSE,158,0.0,0.0,90,0.00,CLR,SKC,0.00,WeatherDisplay:10.37,2013-05-29 01:32:00,
2013-05-29 03:37:00,48.6,45.8,29.67,SSE,158,0.0,0.0,90,0.00,CLR,SKC,0.00,WeatherDisplay:10.37,2013-05-29 01:37:00,
2013-05-29 03:42:00,48.6,45.8,29.67,South,181,0.0,0.0,90,0.00,CLR,SKC,0.00,WeatherDisplay:10.37,2013-05-29 01:42:00,
2013-05-29 03:47:00,48.4,45.6,29.67,WNW,292,0.0,0.0,90,0.00,CLR,SKC,0.00,WeatherDisplay:10.37,2013-05-29 01:47:00,
2013-05-29 03:52:00,48.4,45.6,29.67,WSW,245,0.0,0.0,90,0.00,CLR,SKC,0.00,WeatherDisplay:10.37,2013-05-29 01:52:00,
2013-05-29 03:57:00,48.2,45.4,29.67,WNW,292,0.0,0.0,90,0.00,CLR,SKC,0.00,WeatherDisplay:10.37,2013-05-29 01:57:00,
2013-05-29 04:02:00,48.2,45.4,29.67,WNW,292,0.0,0.0,90,0.00,CLR,SKC,0.00,WeatherDisplay:10.37,2013-05-29 02:02:00,
2013-05-29 04:07:00,48.0,45.2,29.67,WNW,292,0.0,0.0,90,0.00,CLR,SKC,0.00,WeatherDisplay:10.37,2013-05-29 02:07:00,
2013-05-29 04:12:00,48.0,45.2,29.66,WNW,292,0.0,0.0,90,0.00,CLR,SKC,0.00,WeatherDisplay:10.37,2013-05-29 02:12:00,
2013-05-29 04:17:00,48.0,45.5,29.67,WNW,292,0.0,0.0,91,0.00,CLR,SKC,0.00,WeatherDisplay:10.37,2013-05-29 02:17:00,
2013-05-29 04:22:00,48.0,45.5,29.67,WNW,292,0.0,0.0,91,0.00,CLR,SKC,0.00,WeatherDisplay:10.37,2013-05-29 02:22:00,
2013-05-29 04:27:00,47.7,45.2,29.67,WNW,292,0.0,0.0,91,0.00,CLR,SKC,0.00,WeatherDisplay:10.37,2013-05-29 02:27:00,
2013-05-29 04:32:00,47.7,45.2,29.67,WNW,292,0.0,0.0,91,0.00,CLR,SKC,0.00,WeatherDisplay:10.37,2013-05-29 02:32:00,
2013-05-29 04:38:00,47.7,45.2,29.67,WNW,292,0.0,0.0,91,0.00,CLR,SKC,0.00,WeatherDisplay:10.37,2013-05-29 02:38:00,
2013-05-29 04:43:00,47.7,45.2,29.67,WNW,292,0.0,0.0,91,0.00,CLR,SKC,0.00,WeatherDisplay:10.37,2013-05-29 02:43:00,
2013-05-29 04:48:00,47.5,45.0,29.67,WNW,292,0.0,0.0,91,0.00,CLR,SKC,0.00,WeatherDisplay:10.37,2013-05-29 02:48:00,
2013-05-29 04:53:00,47.5,45.0,29.67,WNW,292,0.0,0.0,91,0.00,CLR,SKC,0.00,WeatherDisplay:10.37,2013-05-29 02:53:00,
2013-05-29 04:58:00,47.5,45.0,29.67,WNW,292,0.0,0.0,91,0.00,CLR,SKC,0.00,WeatherDisplay:10.37,2013-05-29 02:58:00,
2013-05-29 05:03:00,47.5,45.0,29.67,WNW,292,0.0,0.0,91,0.00,CLR,SKC,0.00,WeatherDisplay:10.37,2013-05-29 03:03:00,
2013-05-29 05:08:00,47.8,45.3,29.67,WNW,292,0.0,0.0,91,0.00,CLR,SKC,0.00,WeatherDisplay:10.37,2013-05-29 03:08:00,
2013-05-29 05:13:00,47.8,45.3,29.67,WNW,292,0.0,0.0,91,0.00,CLR,SKC,0.00,WeatherDisplay:10.37,2013-05-29 03:13:00,
2013-05-29 05:18:00,48.2,46.0,29.67,WNW,292,0.0,0.0,92,0.00,CLR,SKC,0.00,WeatherDisplay:10.37,2013-05-29 03:18:00,
2013-05-29 05:23:00,48.4,46.2,29.67,WNW,292,0.0,0.0,92,0.00,CLR,SKC,0.00,WeatherDisplay:10.37,2013-05-29 03:23:00,
2013-05-29 05:28:00,48.4,46.2,29.67,WNW,292,0.0,0.0,92,0.00,CLR,SKC,0.00,WeatherDisplay:10.37,2013-05-29 03:28:00,
2013-05-29 05:33:00,48.7,46.5,29.67,WNW,292,0.0,0.0,92,0.00,CLR,SKC,0.00,WeatherDisplay:10.37,2013-05-29 03:33:00,
2013-05-29 05:38:00,48.7,46.5,29.67,WNW,292,0.0,0.0,92,0.00,CLR,SKC,0.00,WeatherDisplay:10.37,2013-05-29 03:38:00,
2013-05-29 05:43:00,48.9,46.7,29.67,WNW,292,0.0,0.0,92,0.00,CLR,SKC,0.00,WeatherDisplay:10.37,2013-05-29 03:43:00,
2013-05-29 05:48:00,49.1,46.9,29.66,WNW,292,0.0,0.0,92,0.00,CLR,SKC,0.00,WeatherDisplay:10.37,2013-05-29 03:48:00,
2013-05-29 05:53:00,49.6,47.4,29.66,WNW,292,0.0,0.0,92,0.00,CLR,SKC,0.00,WeatherDisplay:10.37,2013-05-29 03:53:00,
2013-05-29 05:58:00,49.6,47.4,29.66,WNW,292,0.0,0.0,92,0.00,CLR,SKC,0.00,WeatherDisplay:10.37,2013-05-29 03:58:00,
2013-05-29 06:01:00,49.8,47.6,29.66,WNW,292,0.0,0.0,92,0.00,CLR,SKC,0.00,WeatherDisplay:10.37,2013-05-29 04:01:00,
2013-05-29 06:02:00,49.8,47.6,29.67,WNW,292,0.0,0.0,92,0.00,CLR,SKC,0.00,WeatherDisplay:10.37,2013-05-29 04:02:00,
2013-05-29 06:03:00,50.2,47.9,29.67,WNW,292,0.0,0.0,92,0.00,CLR,SKC,0.00,WeatherDisplay:10.37,2013-05-29 04:03:00,
2013-05-29 06:08:00,50.4,48.1,29.67,NW,315,0.0,0.0,92,0.00,CLR,SKC,0.00,WeatherDisplay:10.37,2013-05-29 04:08:00,
2013-05-29 06:13:00,50.5,48.3,29.67,NW,315,0.0,0.0,92,0.00,CLR,SKC,0.00,WeatherDisplay:10.37,2013-05-29 04:13:00,
2013-05-29 06:18:00,50.9,48.7,29.66,NW,315,0.0,0.0,92,0.00,CLR,SKC,0.00,WeatherDisplay:10.37,2013-05-29 04:18:00,
2013-05-29 06:23:00,50.9,48.7,29.66,NNW,338,0.0,2.3,92,0.00,CLR,SKC,0.00,WeatherDisplay:10.37,2013-05-29 04:23:00,
2013-05-29 06:28:00,51.6,49.4,29.66,NNE,22,0.8,2.3,92,0.00,CLR,SKC,0.00,WeatherDisplay:10.37,2013-05-29 04:28:00,
2013-05-29 06:33:00,51.6,49.4,29.66,NNE,22,0.0,2.3,92,0.00,CLR,SKC,0.00,WeatherDisplay:10.37,2013-05-29 04:33:00,
2013-05-29 06:38:00,51.6,49.4,29.66,NNE,24,0.0,0.0,92,0.00,CLR,SKC,0.00,WeatherDisplay:10.37,2013-05-29 04:38:00,
2013-05-29 06:43:00,51.6,49.4,29.66,NNE,24,0.0,0.0,92,0.00,CLR,SKC,0.00,WeatherDisplay:10.37,2013-05-29 04:43:00,
2013-05-29 06:48:00,53.4,51.2,29.66,NNE,22,0.0,0.0,92,0.00,CLR,SKC,0.00,WeatherDisplay:10.37,2013-05-29 04:48:00,
2013-05-29 06:53:00,54.1,51.9,29.66,NNE,22,0.0,0.0,92,0.00,CLR,SKC,0.00,WeatherDisplay:10.37,2013-05-29 04:53:00,
2013-05-29 06:58:00,54.1,51.6,29.66,NE,45,1.2,3.5,91,0.00,CLR,SKC,0.00,WeatherDisplay:10.37,2013-05-29 04:58:00,
2013-05-29 07:03:00,54.5,51.6,29.66,North,0,1.3,2.3,90,0.00,CLR,SKC,0.00,WeatherDisplay:10.37,2013-05-29 05:03:00,
2013-05-29 07:08:00,54.9,52.0,29.66,NE,45,1.4,2.3,90,0.00,CLR,SKC,0.00,WeatherDisplay:10.37,2013-05-29 05:08:00,
2013-05-29 07:13:00,54.9,51.7,29.66,NW,315,0.8,2.3,89,0.00,CLR,SKC,0.00,WeatherDisplay:10.37,2013-05-29 05:13:00,
2013-05-29 07:18:00,55.0,51.5,29.66,NNW,338,0.1,1.2,88,0.00,CLR,SKC,0.00,WeatherDisplay:10.37,2013-05-29 05:18:00,
2013-05-29 07:23:00,55.8,52.3,29.66,NNW,338,0.4,1.2,88,0.00,CLR,SKC,0.00,WeatherDisplay:10.37,2013-05-29 05:23:00,
2013-05-29 07:28:00,55.8,52.3,29.66,North,356,0.0,0.0,88,0.00,CLR,SKC,0.00,WeatherDisplay:10.37,2013-05-29 05:28:00,
2013-05-29 07:33:00,55.8,51.9,29.66,NW,315,0.0,0.0,87,0.00,CLR,SKC,0.00,WeatherDisplay:10.37,2013-05-29 05:33:00,
2013-05-29 07:38:00,57.0,52.6,29.66,ENE,68,0.1,1.8,85,0.00,CLR,SKC,0.00,WeatherDisplay:10.37,2013-05-29 05:38:00,
2013-05-29 07:43:00,57.0,52.6,29.66,East,90,0.7,2.3,85,0.00,CLR,SKC,0.00,WeatherDisplay:10.37,2013-05-29 05:43:00,
2013-05-29 07:48:00,57.1,52.6,29.66,North,5,1.0,1.0,85,0.00,CLR,SKC,0.00,WeatherDisplay:10.37,2013-05-29 05:48:00,
2013-05-29 07:53:00,57.4,52.6,29.66,NW,315,2.2,3.5,84,0.00,CLR,SKC,0.00,WeatherDisplay:10.37,2013-05-29 05:53:00,
2013-05-29 07:58:00,57.4,52.6,29.66,NW,315,2.1,3.5,84,0.00,CLR,SKC,0.00,WeatherDisplay:10.37,2013-05-29 05:58:00,
2013-05-29 08:04:00,57.4,52.6,29.66,NNW,338,1.4,3.5,84,0.00,CLR,SKC,0.00,WeatherDisplay:10.37,2013-05-29 06:04:00,
2013-05-29 08:09:00,58.5,53.3,29.65,ENE,68,0.0,0.0,83,0.00,CLR,SKC,0.00,WeatherDisplay:10.37,2013-05-29 06:09:00,
2013-05-29 08:14:00,59.2,53.7,29.65,WNW,292,0.7,0.9,82,0.00,CLR,SKC,0.00,WeatherDisplay:10.37,2013-05-29 06:14:00,
2013-05-29 08:19:00,59.5,53.7,29.65,WNW,292,0.7,1.2,81,0.00,CLR,SKC,0.00,WeatherDisplay:10.37,2013-05-29 06:19:00,
2013-05-29 08:24:00,60.1,54.2,29.65,NE,45,0.0,1.2,81,0.00,CLR,SKC,0.00,WeatherDisplay:10.37,2013-05-29 06:24:00,
2013-05-29 08:29:00,60.1,54.2,29.65,NE,45,0.0,1.2,81,0.00,CLR,SKC,0.00,WeatherDisplay:10.37,2013-05-29 06:29:00,
2013-05-29 08:34:00,60.6,54.4,29.65,NE,45,1.1,1.2,80,0.00,CLR,SKC,0.00,WeatherDisplay:10.37,2013-05-29 06:34:00,
2013-05-29 08:39:00,60.6,54.1,29.65,NE,45,0.9,2.3,79,0.00,CLR,SKC,0.00,WeatherDisplay:10.37,2013-05-29 06:39:00,
2013-05-29 08:44:00,60.6,54.1,29.65,NE,45,0.9,2.3,79,0.00,CLR,SKC,0.00,WeatherDisplay:10.37,2013-05-29 06:44:00,
2013-05-29 08:49:00,60.6,54.1,29.65,NE,45,0.1,2.5,79,0.00,CLR,SKC,0.00,WeatherDisplay:10.37,2013-05-29 06:49:00,
2013-05-29 08:54:00,61.2,54.6,29.65,NE,45,0.7,2.3,79,0.00,CLR,SKC,0.00,WeatherDisplay:10.37,2013-05-29 06:54:00,
2013-05-29 08:59:00,61.9,55.3,29.66,North,0,0.0,2.3,79,0.00,CLR,SKC,0.00,WeatherDisplay:10.37,2013-05-29 06:59:00,
2013-05-29 09:04:00,61.9,55.3,29.66,NE,45,0.0,0.0,79,0.00,CLR,SKC,0.00,WeatherDisplay:10.37,2013-05-29 07:04:00,
2013-05-29 09:09:00,61.9,54.6,29.65,ESE,112,0.0,0.0,77,0.00,CLR,SKC,0.00,WeatherDisplay:10.37,2013-05-29 07:09:00,
2013-05-29 09:14:00,62.2,54.6,29.65,ENE,68,0.7,2.3,76,0.00,CLR,SKC,0.00,WeatherDisplay:10.37,2013-05-29 07:14:00,
2013-05-29 09:19:00,62.2,54.6,29.65,NE,45,0.7,2.3,76,0.00,CLR,SKC,0.00,WeatherDisplay:10.37,2013-05-29 07:19:00,
2013-05-29 09:24:00,63.1,55.1,29.65,NE,45,0.6,2.3,75,0.00,CLR,SKC,0.00,WeatherDisplay:10.37,2013-05-29 07:24:00,
2013-05-29 09:29:00,63.7,55.6,29.65,East,90,0.5,2.3,75,0.00,CLR,SKC,0.00,WeatherDisplay:10.37,2013-05-29 07:29:00,
2013-05-29 09:34:00,63.7,54.9,29.64,NNE,22,0.3,2.3,73,0.00,CLR,SKC,0.00,WeatherDisplay:10.37,2013-05-29 07:34:00,
2013-05-29 09:39:00,64.0,55.2,29.64,ENE,68,0.2,1.2,73,0.00,CLR,SKC,0.00,WeatherDisplay:10.37,2013-05-29 07:39:00,
2013-05-29 09:44:00,64.2,55.4,29.64,NE,45,0.5,3.1,73,0.00,CLR,SKC,0.00,WeatherDisplay:10.37,2013-05-29 07:44:00,
2013-05-29 09:49:00,65.1,56.2,29.64,NE,45,0.5,3.5,73,0.00,CLR,SKC,0.00,WeatherDisplay:10.37,2013-05-29 07:49:00,
2013-05-29 09:54:00,65.1,55.5,29.65,ESE,112,2.0,3.5,71,0.00,CLR,SKC,0.00,WeatherDisplay:10.37,2013-05-29 07:54:00,
2013-05-29 09:59:00,65.1,55.5,29.65,ESE,112,2.1,3.5,71,0.00,CLR,SKC,0.00,WeatherDisplay:10.37,2013-05-29 07:59:00,
2013-05-29 10:04:00,65.5,55.0,29.65,ESE,112,1.8,3.5,69,0.00,CLR,SKC,0.00,WeatherDisplay:10.37,2013-05-29 08:04:00,
2013-05-29 10:09:00,65.3,54.9,29.65,NE,45,0.9,3.5,69,0.00,CLR,SKC,0.00,WeatherDisplay:10.37,2013-05-29 08:09:00,
2013-05-29 10:14:00,65.5,55.0,29.65,East,90,0.7,2.3,69,0.00,CLR,SKC,0.00,WeatherDisplay:10.37,2013-05-29 08:14:00,
2013-05-29 10:20:00,65.5,55.0,29.64,ENE,68,0.7,2.3,69,0.00,CLR,SKC,0.00,WeatherDisplay:10.37,2013-05-29 08:20:00,
2013-05-29 10:25:00,65.3,54.9,29.64,East,90,0.6,2.3,69,0.00,CLR,SKC,0.00,WeatherDisplay:10.37,2013-05-29 08:25:00,
2013-05-29 10:30:00,65.7,55.2,29.64,South,180,0.4,2.3,69,0.00,CLR,SKC,0.00,WeatherDisplay:10.37,2013-05-29 08:30:00,
2013-05-29 10:35:00,65.7,55.2,29.64,South,180,0.4,1.2,69,0.00,CLR,SKC,0.00,WeatherDisplay:10.37,2013-05-29 08:35:00,
2013-05-29 10:40:00,65.7,54.8,29.64,East,90,0.7,1.2,68,0.00,CLR,SKC,0.00,WeatherDisplay:10.37,2013-05-29 08:40:00,
2013-05-29 10:45:00,65.7,54.8,29.64,East,90,0.8,1.6,68,0.00,CLR,SKC,0.00,WeatherDisplay:10.37,2013-05-29 08:45:00,
2013-05-29 10:50:00,65.1,54.7,29.64,South,180,0.4,1.2,69,0.00,CLR,SKC,0.00,WeatherDisplay:10.37,2013-05-29 08:50:00,
2013-05-29 10:55:00,64.9,54.9,29.64,ESE,112,0.0,1.6,70,0.00,CLR,SKC,0.00,WeatherDisplay:10.37,2013-05-29 08:55:00,
2013-05-29 11:00:00,64.6,54.2,29.64,SE,135,0.5,2.3,69,0.00,CLR,SKC,0.00,WeatherDisplay:10.37,2013-05-29 09:00:00,
2013-05-29 11:05:00,64.2,54.2,29.64,ESE,112,0.5,2.3,70,0.00,CLR,SKC,0.00,WeatherDisplay:10.37,2013-05-29 09:05:00,
2013-05-29 11:10:00,64.2,55.0,29.64,ESE,112,0.0,0.0,72,0.00,CLR,SKC,0.00,WeatherDisplay:10.37,2013-05-29 09:10:00,
2013-05-29 11:15:00,64.2,55.0,29.64,East,90,0.0,0.0,72,0.00,CLR,SKC,0.00,WeatherDisplay:10.37,2013-05-29 09:15:00,
2013-05-29 11:20:00,64.2,55.4,29.64,North,0,0.0,0.0,73,0.00,CLR,SKC,0.00,WeatherDisplay:10.37,2013-05-29 09:20:00,
2013-05-29 11:25:00,63.5,55.1,29.64,North,0,0.0,0.0,74,0.00,CLR,SKC,0.00,WeatherDisplay:10.37,2013-05-29 09:25:00,
2013-05-29 11:30:00,63.3,54.9,29.64,ENE,68,0.6,1.2,74,0.00,CLR,SKC,0.00,WeatherDisplay:10.37,2013-05-29 09:30:00,
2013-05-29 11:35:00,63.3,54.9,29.64,ENE,68,1.3,1.3,74,0.00,CLR,SKC,0.00,WeatherDisplay:10.37,2013-05-29 09:35:00,
2013-05-29 11:40:00,63.7,55.2,29.64,North,0,0.4,1.2,74,0.00,CLR,SKC,0.00,WeatherDisplay:10.37,2013-05-29 09:40:00,
2013-05-29 11:45:00,63.7,55.6,29.64,ENE,68,0.0,0.0,75,0.00,CLR,SKC,0.00,WeatherDisplay:10.37,2013-05-29 09:45:00,
2013-05-29 11:50:00,64.0,56.0,29.64,NE,45,3.8,3.8,75,0.00,CLR,SKC,0.00,WeatherDisplay:10.37,2013-05-29 09:50:00,
2013-05-29 11:55:00,65.1,57.0,29.63,NE,45,3.4,3.5,75,0.00,CLR,SKC,0.00,WeatherDisplay:10.37,2013-05-29 09:55:00,
2013-05-29 12:00:00,65.1,57.0,29.63,NE,45,3.8,3.8,75,0.00,CLR,SKC,0.00,WeatherDisplay:10.37,2013-05-29 10:00:00,
2013-05-29 12:05:00,66.6,57.3,29.63,ENE,68,3.8,3.8,72,0.00,CLR,SKC,0.00,WeatherDisplay:10.37,2013-05-29 10:05:00,
2013-05-29 12:10:00,66.6,57.3,29.63,North,0,2.6,3.5,72,0.00,CLR,SKC,0.00,WeatherDisplay:10.37,2013-05-29 10:10:00,
2013-05-29 12:15:00,67.1,57.0,29.63,North,0,1.3,1.3,70,0.00,CLR,SKC,0.00,WeatherDisplay:10.37,2013-05-29 10:15:00,
2013-05-29 12:20:00,67.8,57.7,29.64,NE,45,0.1,1.2,70,0.00,CLR,SKC,0.00,WeatherDisplay:10.37,2013-05-29 10:20:00,
2013-05-29 12:25:00,68.4,57.8,29.64,ENE,68,2.9,5.8,69,0.00,CLR,SKC,0.00,WeatherDisplay:10.37,2013-05-29 10:25:00,
2013-05-29 12:30:00,68.7,58.1,29.63,NNE,22,7.6,8.1,69,0.00,CLR,SKC,0.00,WeatherDisplay:10.37,2013-05-29 10:30:00,
2013-05-29 12:35:00,69.1,58.5,29.63,NNE,22,2.7,2.7,69,0.00,CLR,SKC,0.00,WeatherDisplay:10.37,2013-05-29 10:35:00,
2013-05-29 12:40:00,69.6,58.6,29.63,NE,45,3.0,3.5,68,0.00,CLR,SKC,0.00,WeatherDisplay:10.37,2013-05-29 10:40:00,
2013-05-29 12:45:00,70.0,58.1,29.63,NE,45,2.1,3.5,66,0.00,CLR,SKC,0.00,WeatherDisplay:10.37,2013-05-29 10:45:00,
2013-05-29 12:50:00,70.2,58.7,29.62,SSE,158,0.3,2.3,67,0.00,FEW,SKC,0.00,WeatherDisplay:10.37,2013-05-29 10:50:00,
2013-05-29 12:55:00,70.9,59.4,29.62,ENE,68,1.7,2.3,67,0.00,FEW,SKC,0.00,WeatherDisplay:10.37,2013-05-29 10:55:00,
2013-05-29 13:00:00,71.4,59.5,29.62,NE,45,2.3,4.5,66,0.00,FEW,SKC,0.00,WeatherDisplay:10.37,2013-05-29 11:00:00,
2013-05-29 13:05:00,71.6,59.2,29.62,NE,45,0.9,1.6,65,0.00,FEW,SKC,0.00,WeatherDisplay:10.37,2013-05-29 11:05:00,
2013-05-29 13:10:00,71.8,58.1,29.61,NW,315,3.2,3.5,62,0.00,FEW,SKC,0.00,WeatherDisplay:10.37,2013-05-29 11:10:00,
2013-05-29 13:15:00,71.8,59.4,29.61,SE,135,2.0,3.5,65,0.00,FEW,SKC,0.00,WeatherDisplay:10.37,2013-05-29 11:15:00,
2013-05-29 13:20:00,73.2,60.3,29.61,NNE,22,2.1,2.3,64,0.00,SCT,SKC,0.00,WeatherDisplay:10.37,2013-05-29 11:20:00,
2013-05-29 13:25:00,73.4,59.6,29.60,NNW,338,0.6,2.3,62,0.00,SCT,SKC,0.00,WeatherDisplay:10.37,2013-05-29 11:25:00,
2013-05-29 13:30:00,73.9,59.2,29.60,NE,45,1.8,3.5,60,0.00,SCT,SKC,0.00,WeatherDisplay:10.37,2013-05-29 11:30:00,
2013-05-29 13:35:00,73.6,58.8,29.60,NE,45,1.3,2.3,60,0.00,SCT,SKC,0.00,WeatherDisplay:10.37,2013-05-29 11:35:00,
2013-05-29 13:40:00,73.9,59.6,29.60,NE,45,0.0,0.0,61,0.00,SCT,SKC,0.00,WeatherDisplay:10.37,2013-05-29 11:40:00,
2013-05-29 13:45:00,74.5,58.7,29.59,WNW,292,7.2,8.1,58,0.00,SCT,SKC,0.00,WeatherDisplay:10.37,2013-05-29 11:45:00,
2013-05-29 13:50:00,74.7,58.4,29.59,ESE,112,0.2,1.2,57,0.00,SCT,SKC,0.00,WeatherDisplay:10.37,2013-05-29 11:50:00,
2013-05-29 13:55:00,75.4,58.6,29.59,SE,135,0.0,0.0,56,0.00,SCT,SKC,0.00,WeatherDisplay:10.37,2013-05-29 11:55:00,
2013-05-29 14:00:00,75.4,58.1,29.59,SE,135,1.6,2.3,55,0.00,SCT,SKC,0.00,WeatherDisplay:10.37,2013-05-29 12:00:00,
2013-05-29 14:05:00,75.0,56.7,29.59,East,90,2.4,2.4,53,0.00,SCT,SKC,0.00,WeatherDisplay:10.37,2013-05-29 12:05:00,
2013-05-29 14:10:00,75.6,57.2,29.58,SE,135,1.0,2.3,53,0.00,SCT,SKC,0.00,WeatherDisplay:10.37,2013-05-29 12:10:00,
2013-05-29 14:15:00,75.6,57.2,29.58,East,90,1.1,3.5,53,0.00,SCT,SKC,0.00,WeatherDisplay:10.37,2013-05-29 12:15:00,
2013-05-29 14:20:00,75.4,56.5,29.58,SE,135,0.7,3.5,52,0.00,SCT,SKC,0.00,WeatherDisplay:10.37,2013-05-29 12:20:00,
2013-05-29 14:25:00,75.4,56.5,29.58,SSE,158,1.6,1.6,52,0.00,SCT,SKC,0.00,WeatherDisplay:10.37,2013-05-29 12:25:00,
2013-05-29 14:30:00,75.4,56.5,29.58,NE,45,0.0,0.0,52,0.00,SCT,SKC,0.00,WeatherDisplay:10.37,2013-05-29 12:30:00,
2013-05-29 14:35:00,75.0,57.2,29.58,East,90,0.0,1.2,54,0.00,SCT,SKC,0.00,WeatherDisplay:10.37,2013-05-29 12:35:00,
2013-05-29 14:40:00,75.0,56.7,29.58,ENE,68,0.0,1.2,53,0.00,SCT,SKC,0.00,WeatherDisplay:10.37,2013-05-29 12:40:00,
2013-05-29 14:45:00,74.5,56.7,29.58,ENE,68,0.0,0.0,54,0.00,SCT,SKC,0.00,WeatherDisplay:10.37,2013-05-29 12:45:00,
2013-05-29 14:50:00,74.8,57.6,29.58,ENE,68,0.0,0.0,55,0.00,SCT,SKC,0.00,WeatherDisplay:10.37,2013-05-29 12:50:00,
2013-05-29 14:55:00,74.7,57.4,29.58,SSE,158,0.0,0.0,55,0.00,SCT,SKC,0.00,WeatherDisplay:10.37,2013-05-29 12:55:00,
2013-05-29 15:00:00,74.8,57.1,29.58,SSE,158,3.4,3.5,54,0.00,SCT,SKC,0.00,WeatherDisplay:10.37,2013-05-29 13:00:00,
2013-05-29 15:05:00,75.2,56.9,29.57,East,90,1.3,1.3,53,0.00,SCT,SKC,0.00,WeatherDisplay:10.37,2013-05-29 13:05:00,
2013-05-29 15:10:00,75.4,57.6,29.58,ENE,68,4.9,4.9,54,0.00,SCT,SKC,0.00,WeatherDisplay:10.37,2013-05-29 13:10:00,
2013-05-29 15:15:00,75.6,57.2,29.58,ESE,112,2.1,3.5,53,0.00,SCT,SKC,0.00,WeatherDisplay:10.37,2013-05-29 13:15:00,
2013-05-29 15:20:00,75.4,57.1,29.57,East,90,3.5,3.8,53,0.00,SCT,SKC,0.00,WeatherDisplay:10.37,2013-05-29 13:20:00,
2013-05-29 15:25:00,75.4,57.1,29.57,NNE,22,2.5,3.5,53,0.00,SCT,SKC,0.00,WeatherDisplay:10.37,2013-05-29 13:25:00,
2013-05-29 15:30:00,75.4,57.1,29.57,ENE,68,0.0,0.0,53,0.00,SCT,SKC,0.00,WeatherDisplay:10.37,2013-05-29 13:30:00,
2013-05-29 15:35:00,76.1,58.8,29.57,ENE,68,0.0,0.0,55,0.00,SCT,SKC,0.00,WeatherDisplay:10.37,2013-05-29 13:35:00,
2013-05-29 15:40:00,76.3,57.9,29.57,East,90,2.3,5.4,53,0.00,SCT,SKC,0.00,WeatherDisplay:10.37,2013-05-29 13:40:00,
2013-05-29 15:45:00,76.3,58.9,29.57,NNW,338,2.2,2.3,55,0.00,SCT,SKC,0.00,WeatherDisplay:10.37,2013-05-29 13:45:00,
2013-05-29 15:50:00,75.9,58.1,29.57,ESE,112,0.7,3.5,54,0.00,CLR,SKC,0.00,WeatherDisplay:10.37,2013-05-29 13:50:00,
2013-05-29 15:56:00,75.9,58.1,29.57,East,90,0.0,0.0,54,0.00,CLR,SKC,0.00,WeatherDisplay:10.37,2013-05-29 13:56:00,
2013-05-29 16:01:00,75.4,57.6,29.57,NE,45,2.1,4.6,54,0.00,CLR,SKC,0.00,WeatherDisplay:10.37,2013-05-29 14:01:00,
2013-05-29 16:06:00,75.4,58.1,29.57,NE,45,0.0,2.3,55,0.00,CLR,SKC,0.00,WeatherDisplay:10.37,2013-05-29 14:06:00,
2013-05-29 16:11:00,75.6,58.3,29.56,SSE,158,0.0,0.0,55,0.00,CLR,SKC,0.00,WeatherDisplay:10.37,2013-05-29 14:11:00,
2013-05-29 16:16:00,75.9,58.1,29.56,East,90,0.3,2.3,54,0.00,CLR,SKC,0.00,WeatherDisplay:10.37,2013-05-29 14:16:00,
2013-05-29 16:21:00,76.1,58.2,29.56,South,180,0.0,0.0,54,0.00,CLR,SKC,0.00,WeatherDisplay:10.37,2013-05-29 14:21:00,
2013-05-29 16:26:00,76.5,58.1,29.56,SE,135,0.0,0.0,53,0.00,CLR,SKC,0.00,WeatherDisplay:10.37,2013-05-29 14:26:00,
2013-05-29 16:31:00,76.6,57.7,29.56,South,180,0.4,1.2,52,0.00,CLR,SKC,0.00,WeatherDisplay:10.37,2013-05-29 14:31:00,
2013-05-29 16:36:00,76.5,57.5,29.56,East,90,0.8,2.3,52,0.00,CLR,SKC,0.00,WeatherDisplay:10.37,2013-05-29 14:36:00,
2013-05-29 16:41:00,76.5,57.5,29.56,East,90,1.6,1.6,52,0.00,CLR,SKC,0.00,WeatherDisplay:10.37,2013-05-29 14:41:00,
2013-05-29 16:46:00,75.9,57.0,29.56,SE,135,2.4,2.4,52,0.00,CLR,SKC,0.00,WeatherDisplay:10.37,2013-05-29 14:46:00,
2013-05-29 16:51:00,75.9,57.6,29.56,SSE,158,2.6,5.8,53,0.00,CLR,SKC,0.00,WeatherDisplay:10.37,2013-05-29 14:51:00,
2013-05-29 16:56:00,76.1,58.2,29.56,SSE,158,2.2,2.3,54,0.00,CLR,SKC,0.00,WeatherDisplay:10.37,2013-05-29 14:56:00,
2013-05-29 17:01:00,76.8,58.4,29.55,East,90,3.1,5.8,53,0.00,CLR,SKC,0.00,WeatherDisplay:10.37,2013-05-29 15:01:00,
2013-05-29 17:06:00,76.8,58.4,29.55,East,90,0.9,1.2,53,0.00,CLR,SKC,0.00,WeatherDisplay:10.37,2013-05-29 15:06:00,
2013-05-29 17:11:00,76.6,59.3,29.55,SE,135,4.0,5.8,55,0.00,CLR,SKC,0.00,WeatherDisplay:10.37,2013-05-29 15:11:00,
2013-05-29 17:16:00,76.6,58.7,29.55,ENE,68,1.3,2.3,54,0.00,CLR,SKC,0.00,WeatherDisplay:10.37,2013-05-29 15:16:00,
2013-05-29 17:21:00,75.9,58.6,29.55,SE,135,0.0,0.0,55,0.00,CLR,SKC,0.00,WeatherDisplay:10.37,2013-05-29 15:21:00,
2013-05-29 17:26:00,75.6,57.7,29.55,ENE,68,0.2,1.2,54,0.00,CLR,SKC,0.00,WeatherDisplay:10.37,2013-05-29 15:26:00,
2013-05-29 17:31:00,75.6,57.7,29.55,ENE,68,1.4,1.6,54,0.00,CLR,SKC,0.00,WeatherDisplay:10.37,2013-05-29 15:31:00,
2013-05-29 17:36:00,74.5,58.2,29.54,ENE,68,1.6,1.6,57,0.00,CLR,SKC,0.00,WeatherDisplay:10.37,2013-05-29 15:36:00,
2013-05-29 17:41:00,74.5,58.2,29.55,ENE,68,0.1,1.2,57,0.00,CLR,SKC,0.00,WeatherDisplay:10.37,2013-05-29 15:41:00,
2013-05-29 17:46:00,74.5,58.2,29.54,ESE,112,0.0,0.0,57,0.00,CLR,SKC,0.00,WeatherDisplay:10.37,2013-05-29 15:46:00,
2013-05-29 17:51:00,74.5,58.2,29.54,East,90,0.8,1.2,57,0.00,CLR,SKC,0.00,WeatherDisplay:10.37,2013-05-29 15:51:00,
2013-05-29 17:56:00,74.5,58.2,29.54,SSE,158,0.0,1.6,57,0.00,CLR,SKC,0.00,WeatherDisplay:10.37,2013-05-29 15:56:00,
2013-05-29 18:01:00,74.5,58.2,29.54,SSE,158,1.6,3.6,57,0.00,CLR,SKC,0.00,WeatherDisplay:10.37,2013-05-29 16:01:00,
2013-05-29 18:06:00,74.5,57.8,29.54,South,180,2.0,3.5,56,0.00,CLR,SKC,0.00,WeatherDisplay:10.37,2013-05-29 16:06:00,
2013-05-29 18:11:00,74.5,57.8,29.53,ENE,68,0.0,0.0,56,0.00,CLR,SKC,0.00,WeatherDisplay:10.37,2013-05-29 16:11:00,
2013-05-29 18:16:00,74.5,57.8,29.54,ENE,68,0.6,3.5,56,0.00,CLR,SKC,0.00,WeatherDisplay:10.37,2013-05-29 16:16:00,
2013-05-29 18:21:00,74.5,57.3,29.54,SSE,158,0.8,2.3,55,0.00,CLR,SKC,0.00,WeatherDisplay:10.37,2013-05-29 16:21:00,
2013-05-29 18:26:00,74.5,57.3,29.54,SE,135,0.0,0.0,55,0.00,CLR,SKC,0.00,WeatherDisplay:10.37,2013-05-29 16:26:00,
2013-05-29 18:31:00,74.7,56.9,29.54,ENE,68,1.6,3.5,54,0.00,CLR,SKC,0.00,WeatherDisplay:10.37,2013-05-29 16:31:00,
2013-05-29 18:36:00,74.7,56.9,29.54,East,90,1.9,3.5,54,0.00,CLR,SKC,0.00,WeatherDisplay:10.37,2013-05-29 16:36:00,
2013-05-29 18:41:00,74.7,56.9,29.53,NNW,338,2.8,3.5,54,0.00,CLR,SKC,0.00,WeatherDisplay:10.37,2013-05-29 16:41:00,
2013-05-29 18:46:00,74.1,56.4,29.53,ESE,112,1.4,3.5,54,0.00,CLR,SKC,0.00,WeatherDisplay:10.37,2013-05-29 16:46:00,
2013-05-29 18:51:00,74.1,56.9,29.54,ENE,68,0.4,1.2,55,0.00,CLR,SKC,0.00,WeatherDisplay:10.37,2013-05-29 16:51:00,
2013-05-29 18:56:00,73.9,56.2,29.54,East,90,0.0,0.0,54,0.00,CLR,SKC,0.00,WeatherDisplay:10.37,2013-05-29 16:56:00,
2013-05-29 19:01:00,73.8,56.6,29.54,SSE,158,0.0,0.0,55,0.00,CLR,SKC,0.00,WeatherDisplay:10.37,2013-05-29 17:01:00,
2013-05-29 19:06:00,73.2,55.6,29.54,ESE,112,0.1,1.6,54,0.00,CLR,SKC,0.00,WeatherDisplay:10.37,2013-05-29 17:06:00,
2013-05-29 19:11:00,73.4,56.2,29.54,ENE,68,1.1,1.2,55,0.00,CLR,SKC,0.00,WeatherDisplay:10.37,2013-05-29 17:11:00,
2013-05-29 19:16:00,73.2,56.1,29.55,ESE,112,0.0,0.0,55,0.00,CLR,SKC,0.00,WeatherDisplay:10.37,2013-05-29 17:16:00,
2013-05-29 19:21:00,73.2,56.1,29.55,SE,135,0.4,2.3,55,0.00,BKN,SKC,0.00,WeatherDisplay:10.37,2013-05-29 17:21:00,
2013-05-29 19:26:00,72.9,56.2,29.54,East,90,1.0,2.3,56,0.00,BKN,SKC,0.00,WeatherDisplay:10.37,2013-05-29 17:26:00,
2013-05-29 19:31:00,72.7,56.1,29.54,South,180,0.1,1.2,56,0.00,BKN,SKC,0.00,WeatherDisplay:10.37,2013-05-29 17:31:00,
2013-05-29 19:36:00,72.5,55.9,29.55,ESE,112,0.0,1.2,56,0.00,BKN,SKC,0.00,WeatherDisplay:10.37,2013-05-29 17:36:00,
2013-05-29 19:41:00,72.3,56.2,29.55,ESE,112,0.0,0.0,57,0.00,BKN,SKC,0.00,WeatherDisplay:10.37,2013-05-29 17:41:00,
2013-05-29 19:46:00,72.0,56.4,29.55,SE,135,0.0,0.0,58,0.00,BKN,SKC,0.00,WeatherDisplay:10.37,2013-05-29 17:46:00,
2013-05-29 19:51:00,70.7,56.1,29.55,South,180,0.0,0.0,60,0.00,CLR,SKC,0.00,WeatherDisplay:10.37,2013-05-29 17:51:00,
2013-05-29 19:56:00,70.5,56.4,29.55,South,180,0.0,0.0,61,0.00,CLR,SKC,0.00,WeatherDisplay:10.37,2013-05-29 17:56:00,
2013-05-29 20:01:00,69.3,56.1,29.55,WNW,292,0.0,0.0,63,0.00,CLR,SKC,0.00,WeatherDisplay:10.37,2013-05-29 18:01:00,
2013-05-29 20:06:00,68.2,55.5,29.54,WNW,292,0.0,0.0,64,0.00,CLR,SKC,0.00,WeatherDisplay:10.37,2013-05-29 18:06:00,
2013-05-29 20:11:00,68.2,55.5,29.54,WNW,292,0.0,0.0,64,0.00,CLR,SKC,0.00,WeatherDisplay:10.37,2013-05-29 18:11:00,
2013-05-29 20:16:00,66.9,55.6,29.54,WNW,292,0.0,0.0,67,0.00,CLR,SKC,0.00,WeatherDisplay:10.37,2013-05-29 18:16:00,
2013-05-29 20:21:00,66.9,55.6,29.54,WNW,292,0.0,0.0,67,0.00,CLR,SKC,0.00,WeatherDisplay:10.37,2013-05-29 18:21:00,
2013-05-29 20:26:00,65.8,55.8,29.54,NW,315,0.0,0.0,70,0.00,CLR,SKC,0.00,WeatherDisplay:10.37,2013-05-29 18:26:00,
2013-05-29 20:31:00,65.5,55.8,29.55,NW,315,0.0,0.0,71,0.00,CLR,SKC,0.00,WeatherDisplay:10.37,2013-05-29 18:31:00,
2013-05-29 20:36:00,64.9,55.7,29.55,WNW,292,0.0,0.0,72,0.00,CLR,SKC,0.00,WeatherDisplay:10.37,2013-05-29 18:36:00,
2013-05-29 20:41:00,64.6,55.3,29.55,WNW,292,0.0,0.0,72,0.00,CLR,SKC,0.00,WeatherDisplay:10.37,2013-05-29 18:41:00,
2013-05-29 20:46:00,64.0,55.6,29.55,WNW,292,0.1,1.2,74,0.00,CLR,SKC,0.00,WeatherDisplay:10.37,2013-05-29 18:46:00,
2013-05-29 20:51:00,63.7,55.2,29.55,WNW,292,0.1,1.2,74,0.00,CLR,SKC,0.00,WeatherDisplay:10.37,2013-05-29 18:51:00,
2013-05-29 20:56:00,63.5,55.4,29.55,WNW,292,0.0,0.0,75,0.00,CLR,SKC,0.00,WeatherDisplay:10.37,2013-05-29 18:56:00,
2013-05-29 21:01:00,63.3,55.3,29.55,WNW,292,0.0,0.0,75,0.00,CLR,SKC,0.00,WeatherDisplay:10.37,2013-05-29 19:01:00,
2013-05-29 21:06:00,63.3,55.6,29.55,WNW,292,0.0,0.0,76,0.00,CLR,SKC,0.00,WeatherDisplay:10.37,2013-05-29 19:06:00,
2013-05-29 21:11:00,63.0,55.6,29.56,WNW,292,0.0,0.0,77,0.00,CLR,SKC,0.00,WeatherDisplay:10.37,2013-05-29 19:11:00,
2013-05-29 21:16:00,62.8,55.5,29.55,WNW,292,0.0,0.0,77,0.00,CLR,SKC,0.00,WeatherDisplay:10.37,2013-05-29 19:16:00,
2013-05-29 21:21:00,62.8,55.5,29.55,WNW,292,0.0,0.0,77,0.00,CLR,SKC,0.00,WeatherDisplay:10.37,2013-05-29 19:21:00,
2013-05-29 21:26:00,62.2,55.3,29.56,NNE,22,0.0,0.0,78,0.00,CLR,SKC,0.00,WeatherDisplay:10.37,2013-05-29 19:26:00,
2013-05-29 21:31:00,62.2,55.3,29.56,NNE,22,0.0,0.0,78,0.00,CLR,SKC,0.00,WeatherDisplay:10.37,2013-05-29 19:31:00,
2013-05-29 21:36:00,61.9,55.3,29.56,WNW,292,0.2,1.2,79,0.00,CLR,SKC,0.00,WeatherDisplay:10.37,2013-05-29 19:36:00,
2013-05-29 21:41:00,61.9,55.3,29.56,NW,315,0.2,1.2,79,0.00,CLR,SKC,0.00,WeatherDisplay:10.37,2013-05-29 19:41:00,
2013-05-29 21:46:00,61.7,55.5,29.56,NW,315,0.0,0.0,80,0.00,CLR,SKC,0.00,WeatherDisplay:10.37,2013-05-29 19:46:00,
2013-05-29 21:51:00,61.7,55.5,29.56,NW,315,0.0,0.0,80,0.00,CLR,SKC,0.00,WeatherDisplay:10.37,2013-05-29 19:51:00,
2013-05-29 21:56:00,61.7,55.8,29.56,NW,315,0.0,0.0,81,0.00,CLR,SKC,0.00,WeatherDisplay:10.37,2013-05-29 19:56:00,
2013-05-29 22:01:00,61.7,55.8,29.56,NW,315,0.0,0.0,81,0.00,CLR,SKC,0.00,WeatherDisplay:10.37,2013-05-29 20:01:00,
2013-05-29 22:06:00,61.5,55.6,29.56,NW,315,0.0,0.0,81,0.00,CLR,SKC,0.00,WeatherDisplay:10.37,2013-05-29 20:06:00,
2013-05-29 22:11:00,61.5,55.6,29.56,NW,315,0.0,0.0,81,0.00,CLR,SKC,0.00,WeatherDisplay:10.37,2013-05-29 20:11:00,
2013-05-29 22:16:00,61.5,55.6,29.56,WNW,292,1.0,1.2,81,0.00,CLR,SKC,0.00,WeatherDisplay:10.37,2013-05-29 20:16:00,
2013-05-29 22:21:00,61.5,55.6,29.56,WNW,302,0.0,0.0,81,0.00,CLR,SKC,0.00,WeatherDisplay:10.37,2013-05-29 20:21:00,
2013-05-29 22:26:00,61.7,55.8,29.56,NNW,338,0.0,0.0,81,0.00,CLR,SKC,0.00,WeatherDisplay:10.37,2013-05-29 20:26:00,
2013-05-29 22:31:00,61.9,56.0,29.56,WNW,292,0.0,0.0,81,0.00,CLR,SKC,0.00,WeatherDisplay:10.37,2013-05-29 20:31:00,
2013-05-29 22:36:00,62.1,56.2,29.57,ESE,112,0.1,1.2,81,0.00,CLR,SKC,0.00,WeatherDisplay:10.37,2013-05-29 20:36:00,
2013-05-29 22:41:00,62.1,56.2,29.57,West,270,0.0,1.3,81,0.00,CLR,SKC,0.00,WeatherDisplay:10.37,2013-05-29 20:41:00,
2013-05-29 22:46:00,62.1,56.2,29.57,West,270,0.9,1.2,81,0.00,CLR,SKC,0.00,WeatherDisplay:10.37,2013-05-29 20:46:00,
2013-05-29 22:51:00,62.2,56.7,29.57,West,270,0.0,0.0,82,0.00,CLR,SKC,0.00,WeatherDisplay:10.37,2013-05-29 20:51:00,
2013-05-29 22:56:00,62.2,56.7,29.57,NW,315,0.0,0.0,82,0.00,CLR,SKC,0.00,WeatherDisplay:10.37,2013-05-29 20:56:00,
2013-05-29 23:01:00,62.2,56.3,29.57,NW,315,0.0,0.0,81,0.00,CLR,SKC,0.00,WeatherDisplay:10.37,2013-05-29 21:01:00,
2013-05-29 23:06:00,62.1,56.2,29.57,NW,315,0.0,0.0,81,0.00,CLR,SKC,0.00,WeatherDisplay:10.37,2013-05-29 21:06:00,
2013-05-29 23:11:00,62.1,56.5,29.57,NW,315,0.0,0.0,82,0.00,CLR,SKC,0.00,WeatherDisplay:10.37,2013-05-29 21:11:00,
2013-05-29 23:16:00,62.2,56.7,29.57,WNW,292,0.0,0.0,82,0.00,CLR,SKC,0.00,WeatherDisplay:10.37,2013-05-29 21:16:00,
2013-05-29 23:21:00,62.2,56.7,29.57,WNW,292,0.0,0.0,82,0.00,CLR,SKC,0.00,WeatherDisplay:10.37,2013-05-29 21:21:00,
2013-05-29 23:26:00,62.2,56.7,29.57,WNW,292,0.0,0.0,82,0.00,CLR,SKC,0.00,WeatherDisplay:10.37,2013-05-29 21:26:00,
2013-05-29 23:31:00,62.4,56.9,29.57,WNW,292,0.0,0.0,82,0.00,CLR,SKC,0.00,WeatherDisplay:10.37,2013-05-29 21:31:00,
2013-05-29 23:36:00,62.4,56.9,29.57,WNW,292,0.0,0.0,82,0.00,CLR,SKC,0.00,WeatherDisplay:10.37,2013-05-29 21:36:00,
2013-05-29 23:41:00,62.4,56.9,29.57,WNW,292,0.0,0.0,82,0.00,CLR,SKC,0.00,WeatherDisplay:10.37,2013-05-29 21:41:00,
2013-05-29 23:46:00,62.4,56.9,29.57,WNW,292,0.0,0.0,82,0.00,CLR,SKC,0.00,WeatherDisplay:10.37,2013-05-29 21:46:00,
2013-05-29 23:51:00,62.6,57.0,29.57,WNW,292,0.0,0.0,82,0.00,BKN,SKC,0.00,WeatherDisplay:10.37,2013-05-29 21:51:00,
2013-05-29 23:56:00,62.6,57.0,29.57,WNW,292,0.0,0.0,82,0.00,BKN,SKC,0.00,WeatherDisplay:10.37,2013-05-29 21:56:00,